PWSweather.com
Personal Weather Stations
Station Observations
MENWDWX1
Menstrie, ScotlandGB

MenstrieScotlandGB

Lat: 56.148322, Lon: -3.85483

Elevation: 62

Station Type: Davis Vantage Pro 2

High Low Average
Temperature 46.2°F7.9°C 24.9°F-3.9°C 32.8°F0.4°C
Dew Point 36.6°F2.6°C 19.6°F-6.9°C 26.7°F-2.9°C
Winds 8.1 mph 13.0 kmh Calm Calm 2.0 mph S3.2 kmh S
Wind Gusts 12.7 mph20.4 kmh -- 3.0 mph4.8 kmh
Humidity 81% 65% 78%
Pressure 30.12 in1020.0 mb 29.65 in1004.1 mb -
Precipitation 0.01 in0.3 mm - -
Hour Temp Dew Point Humidity Winds Wind Gusts Pressure Precip Precip Rate Daily Precip Total
12:00 AM 30.0°F-1.1°C 24.3°F-4.3°C 79% Calm Calm 3.5 mph5.6 kmh 30.12 in1020.0 mb - 0.00 in0.0 mm 0.00 in0.0 mm
12:05 AM 30.1°F-1.1°C 24.4°F-4.2°C 79% 3.5 mph E5.6 kmh E 4.6 mph7.4 kmh 30.11 in1019.6 mb - 0.00 in0.0 mm 0.00 in0.0 mm
12:10 AM 30.5°F-0.8°C 24.8°F-4.0°C 79% 2.3 mph ENE3.7 kmh ENE 3.5 mph5.6 kmh 30.11 in1019.6 mb - 0.00 in0.0 mm 0.00 in0.0 mm
12:15 AM 30.5°F-0.8°C 24.8°F-4.0°C 79% Calm Calm 1.2 mph1.9 kmh 30.11 in1019.6 mb - 0.00 in0.0 mm 0.00 in0.0 mm
12:20 AM 30.4°F-0.9°C 24.7°F-4.1°C 79% Calm Calm -- 30.11 in1019.6 mb - 0.00 in0.0 mm 0.00 in0.0 mm
12:25 AM 30.2°F-1.0°C 24.5°F-4.2°C 79% Calm Calm -- 30.11 in1019.6 mb - 0.00 in0.0 mm 0.00 in0.0 mm
12:30 AM 30.2°F-1.0°C 24.5°F-4.2°C 79% 1.2 mph ENE1.9 kmh ENE 3.5 mph5.6 kmh 30.11 in1019.6 mb - 0.00 in0.0 mm 0.00 in0.0 mm
12:35 AM 30.3°F-0.9°C 24.6°F-4.1°C 79% 1.2 mph NE1.9 kmh NE 3.5 mph5.6 kmh 30.11 in1019.6 mb - 0.00 in0.0 mm 0.00 in0.0 mm
12:40 AM 30.4°F-0.9°C 24.6°F-4.1°C 79% 2.3 mph NNE3.7 kmh NNE 3.5 mph5.6 kmh 30.11 in1019.6 mb - 0.00 in0.0 mm 0.00 in0.0 mm
12:45 AM 30.7°F-0.7°C 24.9°F-3.9°C 79% 2.3 mph NE3.7 kmh NE 3.5 mph5.6 kmh 30.11 in1019.6 mb - 0.00 in0.0 mm 0.00 in0.0 mm
12:50 AM 31.4°F-0.3°C 25.6°F-3.6°C 79% 2.3 mph NE3.7 kmh NE 3.5 mph5.6 kmh 30.10 in1019.3 mb - 0.00 in0.0 mm 0.00 in0.0 mm
12:55 AM 31.7°F-0.2°C 25.9°F-3.4°C 79% 1.2 mph NE1.9 kmh NE 1.2 mph1.9 kmh 30.10 in1019.3 mb - 0.00 in0.0 mm 0.00 in0.0 mm
01:00 AM 31.7°F-0.2°C 25.9°F-3.4°C 79% 1.2 mph NE1.9 kmh NE 2.3 mph3.7 kmh 30.10 in1019.3 mb - 0.00 in0.0 mm 0.00 in0.0 mm
01:05 AM 31.5°F-0.3°C 25.7°F-3.5°C 79% Calm Calm -- 30.10 in1019.3 mb - 0.00 in0.0 mm 0.00 in0.0 mm
01:10 AM 31.2°F-0.4°C 25.4°F-3.7°C 79% Calm Calm -- 30.09 in1019.0 mb - 0.00 in0.0 mm 0.00 in0.0 mm
01:15 AM 31.0°F-0.6°C 25.2°F-3.8°C 79% 1.2 mph NE1.9 kmh NE 2.3 mph3.7 kmh 30.09 in1019.0 mb - 0.00 in0.0 mm 0.00 in0.0 mm
01:20 AM 30.8°F-0.7°C 25.0°F-3.9°C 79% 1.2 mph NE1.9 kmh NE 2.3 mph3.7 kmh 30.09 in1019.0 mb - 0.00 in0.0 mm 0.00 in0.0 mm
01:25 AM 30.3°F-0.9°C 24.6°F-4.1°C 79% Calm Calm -- 30.09 in1019.0 mb - 0.00 in0.0 mm 0.00 in0.0 mm
01:30 AM 29.9°F-1.2°C 24.2°F-4.3°C 79% Calm Calm -- 30.08 in1018.6 mb - 0.00 in0.0 mm 0.00 in0.0 mm
01:35 AM 29.6°F-1.3°C 23.9°F-4.5°C 79% Calm Calm -- 30.08 in1018.6 mb - 0.00 in0.0 mm 0.00 in0.0 mm
01:40 AM 29.3°F-1.5°C 23.6°F-4.7°C 79% Calm Calm -- 30.08 in1018.6 mb - 0.00 in0.0 mm 0.00 in0.0 mm
01:45 AM 29.0°F-1.7°C 23.3°F-4.8°C 79% Calm Calm -- 30.08 in1018.6 mb - 0.00 in0.0 mm 0.00 in0.0 mm
01:50 AM 28.9°F-1.7°C 23.2°F-4.9°C 79% Calm Calm -- 30.08 in1018.6 mb - 0.00 in0.0 mm 0.00 in0.0 mm
01:55 AM 28.8°F-1.8°C 23.1°F-4.9°C 79% 1.2 mph NE1.9 kmh NE 1.2 mph1.9 kmh 30.08 in1018.6 mb - 0.00 in0.0 mm 0.00 in0.0 mm
02:00 AM 28.8°F-1.8°C 23.4°F-4.8°C 80% Calm Calm -- 30.08 in1018.6 mb - 0.00 in0.0 mm 0.00 in0.0 mm
02:05 AM 28.6°F-1.9°C 22.9°F-5.1°C 79% Calm Calm -- 30.08 in1018.6 mb - 0.00 in0.0 mm 0.00 in0.0 mm
02:10 AM 28.4°F-2.0°C 23.0°F-5.0°C 80% Calm Calm -- 30.08 in1018.6 mb - 0.00 in0.0 mm 0.00 in0.0 mm
02:15 AM 28.3°F-2.1°C 22.9°F-5.1°C 80% 1.2 mph NE1.9 kmh NE 2.3 mph3.7 kmh 30.07 in1018.3 mb - 0.00 in0.0 mm 0.00 in0.0 mm
02:20 AM 28.4°F-2.0°C 23.0°F-5.0°C 80% Calm Calm -- 30.07 in1018.3 mb - 0.00 in0.0 mm 0.00 in0.0 mm
02:25 AM 28.4°F-2.0°C 23.0°F-5.0°C 80% Calm Calm -- 30.07 in1018.3 mb - 0.00 in0.0 mm 0.00 in0.0 mm
02:30 AM 28.6°F-1.9°C 22.9°F-5.1°C 79% Calm Calm -- 30.06 in1017.9 mb - 0.00 in0.0 mm 0.00 in0.0 mm
02:35 AM 28.7°F-1.8°C 23.3°F-4.8°C 80% Calm Calm -- 30.06 in1017.9 mb - 0.00 in0.0 mm 0.00 in0.0 mm
02:40 AM 28.5°F-1.9°C 23.1°F-4.9°C 80% 2.3 mph W3.7 kmh W 3.5 mph5.6 kmh 30.06 in1017.9 mb - 0.00 in0.0 mm 0.00 in0.0 mm
02:45 AM 28.1°F-2.2°C 22.4°F-5.3°C 79% Calm Calm -- 30.06 in1017.9 mb - 0.00 in0.0 mm 0.00 in0.0 mm
02:50 AM 27.8°F-2.3°C 22.1°F-5.5°C 79% Calm Calm -- 30.06 in1017.9 mb - 0.00 in0.0 mm 0.00 in0.0 mm
02:55 AM 27.5°F-2.5°C 22.1°F-5.5°C 80% Calm Calm -- 30.06 in1017.9 mb - 0.00 in0.0 mm 0.00 in0.0 mm
03:00 AM 27.3°F-2.6°C 21.9°F-5.6°C 80% 1.2 mph W1.9 kmh W 2.3 mph3.7 kmh 30.05 in1017.6 mb - 0.00 in0.0 mm 0.00 in0.0 mm
03:05 AM 27.1°F-2.7°C 21.7°F-5.7°C 80% 1.2 mph W1.9 kmh W 2.3 mph3.7 kmh 30.06 in1017.9 mb - 0.00 in0.0 mm 0.00 in0.0 mm
03:10 AM 27.1°F-2.7°C 21.7°F-5.7°C 80% Calm Calm -- 30.05 in1017.6 mb - 0.00 in0.0 mm 0.00 in0.0 mm
03:15 AM 27.3°F-2.6°C 21.9°F-5.6°C 80% Calm Calm -- 30.05 in1017.6 mb - 0.00 in0.0 mm 0.00 in0.0 mm
03:20 AM 27.6°F-2.4°C 22.2°F-5.4°C 80% Calm Calm -- 30.05 in1017.6 mb - 0.00 in0.0 mm 0.00 in0.0 mm
03:25 AM 27.6°F-2.4°C 22.2°F-5.4°C 80% Calm Calm -- 30.05 in1017.6 mb - 0.00 in0.0 mm 0.00 in0.0 mm
03:30 AM 27.6°F-2.4°C 22.2°F-5.4°C 80% Calm Calm -- 30.05 in1017.6 mb - 0.00 in0.0 mm 0.00 in0.0 mm
03:35 AM 27.7°F-2.4°C 22.3°F-5.4°C 80% Calm Calm -- 30.04 in1017.3 mb - 0.00 in0.0 mm 0.00 in0.0 mm
03:40 AM 27.6°F-2.4°C 22.2°F-5.4°C 80% Calm Calm -- 30.04 in1017.3 mb - 0.00 in0.0 mm 0.00 in0.0 mm
03:45 AM 27.4°F-2.6°C 22.1°F-5.5°C 80% Calm Calm -- 30.04 in1017.3 mb - 0.00 in0.0 mm 0.00 in0.0 mm
03:50 AM 27.4°F-2.6°C 22.0°F-5.6°C 80% Calm Calm -- 30.04 in1017.3 mb - 0.00 in0.0 mm 0.00 in0.0 mm
03:55 AM 27.2°F-2.7°C 21.8°F-5.7°C 80% Calm Calm -- 30.04 in1017.3 mb - 0.00 in0.0 mm 0.00 in0.0 mm
04:00 AM 26.8°F-2.9°C 21.5°F-5.8°C 80% Calm Calm -- 30.04 in1017.3 mb - 0.00 in0.0 mm 0.00 in0.0 mm
04:05 AM 26.7°F-2.9°C 21.4°F-5.9°C 80% Calm Calm 3.5 mph5.6 kmh 30.03 in1016.9 mb - 0.00 in0.0 mm 0.00 in0.0 mm
04:10 AM 26.7°F-2.9°C 21.4°F-5.9°C 80% Calm Calm -- 30.03 in1016.9 mb - 0.00 in0.0 mm 0.00 in0.0 mm
04:15 AM 26.7°F-2.9°C 21.4°F-5.9°C 80% Calm Calm -- 30.03 in1016.9 mb - 0.00 in0.0 mm 0.00 in0.0 mm
04:20 AM 27.1°F-2.7°C 21.7°F-5.7°C 80% 2.3 mph N3.7 kmh N 2.3 mph3.7 kmh 30.03 in1016.9 mb - 0.00 in0.0 mm 0.00 in0.0 mm
04:25 AM 27.3°F-2.6°C 21.9°F-5.6°C 80% 1.2 mph N1.9 kmh N 2.3 mph3.7 kmh 30.03 in1016.9 mb - 0.00 in0.0 mm 0.00 in0.0 mm
04:30 AM 27.6°F-2.4°C 22.2°F-5.4°C 80% 2.3 mph N3.7 kmh N 3.5 mph5.6 kmh 30.02 in1016.6 mb - 0.00 in0.0 mm 0.00 in0.0 mm
04:35 AM 28.0°F-2.2°C 22.6°F-5.2°C 80% 1.2 mph N1.9 kmh N 2.3 mph3.7 kmh 30.02 in1016.6 mb - 0.00 in0.0 mm 0.00 in0.0 mm
04:40 AM 28.1°F-2.2°C 22.7°F-5.2°C 80% 1.2 mph N1.9 kmh N 2.3 mph3.7 kmh 30.02 in1016.6 mb - 0.00 in0.0 mm 0.00 in0.0 mm
04:45 AM 28.0°F-2.2°C 22.6°F-5.2°C 80% 2.3 mph N3.7 kmh N 3.5 mph5.6 kmh 30.02 in1016.6 mb - 0.00 in0.0 mm 0.00 in0.0 mm
04:50 AM 27.9°F-2.3°C 22.5°F-5.3°C 80% 2.3 mph N3.7 kmh N 3.5 mph5.6 kmh 30.02 in1016.6 mb - 0.00 in0.0 mm 0.00 in0.0 mm
04:55 AM 28.1°F-2.2°C 22.7°F-5.2°C 80% 2.3 mph N3.7 kmh N 3.5 mph5.6 kmh 30.01 in1016.3 mb - 0.00 in0.0 mm 0.00 in0.0 mm
05:00 AM 28.2°F-2.1°C 22.8°F-5.1°C 80% 1.2 mph N1.9 kmh N 2.3 mph3.7 kmh 30.01 in1016.3 mb - 0.00 in0.0 mm 0.00 in0.0 mm
05:05 AM 28.3°F-2.1°C 22.9°F-5.1°C 80% Calm Calm 1.2 mph1.9 kmh 30.01 in1016.3 mb - 0.00 in0.0 mm 0.00 in0.0 mm
05:10 AM 28.0°F-2.2°C 22.6°F-5.2°C 80% Calm Calm -- 30.01 in1016.3 mb - 0.00 in0.0 mm 0.00 in0.0 mm
05:15 AM 27.7°F-2.4°C 22.4°F-5.3°C 80% Calm Calm -- 30.01 in1016.3 mb - 0.00 in0.0 mm 0.00 in0.0 mm
05:20 AM 27.3°F-2.6°C 22.0°F-5.6°C 80% Calm Calm -- 30.01 in1016.3 mb - 0.00 in0.0 mm 0.00 in0.0 mm
05:25 AM 26.9°F-2.8°C 21.6°F-5.8°C 80% Calm Calm -- 30.01 in1016.3 mb - 0.00 in0.0 mm 0.00 in0.0 mm
05:30 AM 26.6°F-3.0°C 21.3°F-5.9°C 80% Calm Calm -- 30.01 in1016.3 mb - 0.00 in0.0 mm 0.00 in0.0 mm
05:35 AM 26.4°F-3.1°C 21.0°F-6.1°C 80% Calm Calm -- 30.00 in1015.9 mb - 0.00 in0.0 mm 0.00 in0.0 mm
05:40 AM 26.2°F-3.2°C 20.9°F-6.2°C 80% Calm Calm -- 30.00 in1015.9 mb - 0.00 in0.0 mm 0.00 in0.0 mm
05:45 AM 26.3°F-3.2°C 21.0°F-6.1°C 80% Calm Calm -- 30.00 in1015.9 mb - 0.00 in0.0 mm 0.00 in0.0 mm
05:50 AM 26.6°F-3.0°C 21.3°F-5.9°C 80% Calm Calm -- 30.00 in1015.9 mb - 0.00 in0.0 mm 0.00 in0.0 mm
05:55 AM 26.6°F-3.0°C 21.3°F-5.9°C 80% Calm Calm -- 30.00 in1015.9 mb - 0.00 in0.0 mm 0.00 in0.0 mm
06:00 AM 26.4°F-3.1°C 21.1°F-6.1°C 80% 1.2 mph W1.9 kmh W 3.5 mph5.6 kmh 29.99 in1015.6 mb - 0.00 in0.0 mm 0.00 in0.0 mm
06:05 AM 26.2°F-3.2°C 20.9°F-6.2°C 80% Calm Calm -- 29.99 in1015.6 mb - 0.00 in0.0 mm 0.00 in0.0 mm
06:10 AM 26.1°F-3.3°C 20.8°F-6.2°C 80% Calm Calm -- 29.99 in1015.6 mb - 0.00 in0.0 mm 0.00 in0.0 mm
06:15 AM 26.1°F-3.3°C 20.8°F-6.2°C 80% Calm Calm -- 29.98 in1015.2 mb - 0.00 in0.0 mm 0.00 in0.0 mm
06:20 AM 26.3°F-3.2°C 20.9°F-6.2°C 80% Calm Calm -- 29.98 in1015.2 mb - 0.00 in0.0 mm 0.00 in0.0 mm
06:25 AM 26.3°F-3.2°C 20.9°F-6.2°C 80% Calm Calm -- 29.98 in1015.2 mb - 0.00 in0.0 mm 0.00 in0.0 mm
06:30 AM 25.8°F-3.4°C 20.5°F-6.4°C 80% 1.2 mph WSW1.9 kmh WSW 2.3 mph3.7 kmh 29.98 in1015.2 mb - 0.00 in0.0 mm 0.00 in0.0 mm
06:35 AM 25.3°F-3.7°C 20.0°F-6.7°C 80% 2.3 mph WSW3.7 kmh WSW 3.5 mph5.6 kmh 29.98 in1015.2 mb - 0.00 in0.0 mm 0.00 in0.0 mm
06:40 AM 25.0°F-3.9°C 19.7°F-6.8°C 80% 1.2 mph WSW1.9 kmh WSW 2.3 mph3.7 kmh 29.98 in1015.2 mb - 0.00 in0.0 mm 0.00 in0.0 mm
06:45 AM 24.9°F-3.9°C 19.6°F-6.9°C 80% 1.2 mph W1.9 kmh W 2.3 mph3.7 kmh 29.98 in1015.2 mb - 0.00 in0.0 mm 0.00 in0.0 mm
06:50 AM 25.2°F-3.8°C 19.9°F-6.7°C 80% 1.2 mph WSW1.9 kmh WSW 1.2 mph1.9 kmh 29.98 in1015.2 mb - 0.00 in0.0 mm 0.00 in0.0 mm
06:55 AM 25.3°F-3.7°C 20.0°F-6.7°C 80% Calm Calm -- 29.98 in1015.2 mb - 0.00 in0.0 mm 0.00 in0.0 mm
07:00 AM 25.1°F-3.8°C 19.8°F-6.8°C 80% Calm Calm -- 29.98 in1015.2 mb - 0.00 in0.0 mm 0.00 in0.0 mm
07:05 AM 25.0°F-3.9°C 19.7°F-6.8°C 80% Calm Calm -- 29.97 in1014.9 mb - 0.00 in0.0 mm 0.00 in0.0 mm
07:10 AM 24.9°F-3.9°C 19.6°F-6.9°C 80% Calm Calm -- 29.97 in1014.9 mb - 0.00 in0.0 mm 0.00 in0.0 mm
07:15 AM 24.9°F-3.9°C 19.6°F-6.9°C 80% Calm Calm -- 29.97 in1014.9 mb - 0.00 in0.0 mm 0.00 in0.0 mm
07:20 AM 25.0°F-3.9°C 19.7°F-6.8°C 80% Calm Calm -- 29.97 in1014.9 mb - 0.00 in0.0 mm 0.00 in0.0 mm
07:25 AM 25.2°F-3.8°C 20.2°F-6.6°C 81% 2.3 mph W3.7 kmh W 3.5 mph5.6 kmh 29.96 in1014.6 mb - 0.00 in0.0 mm 0.00 in0.0 mm
07:30 AM 25.5°F-3.6°C 20.5°F-6.4°C 81% 1.2 mph NE1.9 kmh NE 2.3 mph3.7 kmh 29.96 in1014.6 mb - 0.00 in0.0 mm 0.00 in0.0 mm
07:35 AM 25.8°F-3.4°C 20.8°F-6.2°C 81% 1.2 mph NE1.9 kmh NE 2.3 mph3.7 kmh 29.97 in1014.9 mb - 0.00 in0.0 mm 0.00 in0.0 mm
07:40 AM 26.0°F-3.3°C 21.0°F-6.1°C 81% 2.3 mph NE3.7 kmh NE 3.5 mph5.6 kmh 29.96 in1014.6 mb - 0.00 in0.0 mm 0.00 in0.0 mm
07:45 AM 26.3°F-3.2°C 21.3°F-5.9°C 81% 2.3 mph NE3.7 kmh NE 3.5 mph5.6 kmh 29.96 in1014.6 mb - 0.00 in0.0 mm 0.00 in0.0 mm
07:50 AM 26.8°F-2.9°C 21.7°F-5.7°C 81% 2.3 mph NE3.7 kmh NE 3.5 mph5.6 kmh 29.96 in1014.6 mb - 0.00 in0.0 mm 0.00 in0.0 mm
07:55 AM 27.2°F-2.7°C 22.1°F-5.5°C 81% 2.3 mph ENE3.7 kmh ENE 3.5 mph5.6 kmh 29.95 in1014.2 mb - 0.00 in0.0 mm 0.00 in0.0 mm
08:00 AM 27.4°F-2.6°C 22.3°F-5.4°C 81% 2.3 mph NE3.7 kmh NE 3.5 mph5.6 kmh 29.95 in1014.2 mb - 0.00 in0.0 mm 0.00 in0.0 mm
08:05 AM 27.5°F-2.5°C 22.4°F-5.3°C 81% 3.5 mph WSW5.6 kmh WSW 4.6 mph7.4 kmh 29.95 in1014.2 mb - 0.00 in0.0 mm 0.00 in0.0 mm
08:10 AM 27.2°F-2.7°C 22.1°F-5.5°C 81% 2.3 mph W3.7 kmh W 3.5 mph5.6 kmh 29.95 in1014.2 mb - 0.00 in0.0 mm 0.00 in0.0 mm
08:15 AM 27.0°F-2.8°C 21.9°F-5.6°C 81% 1.2 mph WSW1.9 kmh WSW 3.5 mph5.6 kmh 29.95 in1014.2 mb - 0.00 in0.0 mm 0.00 in0.0 mm
08:20 AM 27.0°F-2.8°C 21.9°F-5.6°C 81% 2.3 mph WSW3.7 kmh WSW 5.8 mph9.3 kmh 29.95 in1014.2 mb - 0.00 in0.0 mm 0.00 in0.0 mm
08:25 AM 26.9°F-2.8°C 21.8°F-5.7°C 81% 2.3 mph WSW3.7 kmh WSW 3.5 mph5.6 kmh 29.95 in1014.2 mb - 0.00 in0.0 mm 0.00 in0.0 mm
08:30 AM 27.0°F-2.8°C 21.9°F-5.6°C 81% Calm Calm 1.2 mph1.9 kmh 29.95 in1014.2 mb - 0.00 in0.0 mm 0.00 in0.0 mm
08:35 AM 27.2°F-2.7°C 22.1°F-5.5°C 81% 1.2 mph WSW1.9 kmh WSW 2.3 mph3.7 kmh 29.95 in1014.2 mb - 0.00 in0.0 mm 0.00 in0.0 mm
08:40 AM 27.4°F-2.6°C 22.3°F-5.4°C 81% 2.3 mph WSW3.7 kmh WSW 3.5 mph5.6 kmh 29.95 in1014.2 mb - 0.00 in0.0 mm 0.00 in0.0 mm
08:45 AM 27.7°F-2.4°C 22.7°F-5.2°C 81% Calm Calm 1.2 mph1.9 kmh 29.95 in1014.2 mb - 0.00 in0.0 mm 0.00 in0.0 mm
08:50 AM 28.1°F-2.2°C 23.0°F-5.0°C 81% 1.2 mph SW1.9 kmh SW 3.5 mph5.6 kmh 29.94 in1013.9 mb - 0.00 in0.0 mm 0.00 in0.0 mm
08:55 AM 28.5°F-1.9°C 23.4°F-4.8°C 81% Calm Calm 1.2 mph1.9 kmh 29.94 in1013.9 mb - 0.00 in0.0 mm 0.00 in0.0 mm
09:00 AM 28.8°F-1.8°C 23.7°F-4.6°C 81% 1.2 mph WSW1.9 kmh WSW 1.2 mph1.9 kmh 29.94 in1013.9 mb - 0.00 in0.0 mm 0.00 in0.0 mm
09:05 AM 29.1°F-1.6°C 24.0°F-4.4°C 81% Calm Calm -- 29.94 in1013.9 mb - 0.00 in0.0 mm 0.00 in0.0 mm
09:10 AM 29.6°F-1.3°C 24.4°F-4.2°C 81% 1.2 mph WSW1.9 kmh WSW 2.3 mph3.7 kmh 29.94 in1013.9 mb - 0.00 in0.0 mm 0.00 in0.0 mm
09:15 AM 29.9°F-1.2°C 24.7°F-4.1°C 81% 1.2 mph WSW1.9 kmh WSW 2.3 mph3.7 kmh 29.93 in1013.5 mb - 0.00 in0.0 mm 0.00 in0.0 mm
09:20 AM 30.6°F-0.8°C 25.4°F-3.7°C 81% 2.3 mph SE3.7 kmh SE 3.5 mph5.6 kmh 29.94 in1013.9 mb - 0.00 in0.0 mm 0.00 in0.0 mm
09:25 AM 31.2°F-0.4°C 26.0°F-3.3°C 81% 1.2 mph SW1.9 kmh SW 2.3 mph3.7 kmh 29.93 in1013.5 mb - 0.00 in0.0 mm 0.00 in0.0 mm
09:30 AM 31.5°F-0.3°C 26.3°F-3.2°C 81% 1.2 mph SW1.9 kmh SW 2.3 mph3.7 kmh 29.93 in1013.5 mb - 0.00 in0.0 mm 0.00 in0.0 mm
09:35 AM 31.8°F-0.1°C 26.6°F-3.0°C 81% Calm Calm -- 29.93 in1013.5 mb - 0.00 in0.0 mm 0.00 in0.0 mm
09:40 AM 32.0°F0.0°C 26.8°F-2.9°C 81% Calm Calm 2.3 mph3.7 kmh 29.93 in1013.5 mb - 0.00 in0.0 mm 0.00 in0.0 mm
09:45 AM 32.4°F0.2°C 27.2°F-2.7°C 81% 1.2 mph SW1.9 kmh SW 2.3 mph3.7 kmh 29.92 in1013.2 mb - 0.00 in0.0 mm 0.00 in0.0 mm
09:50 AM 32.6°F0.3°C 27.4°F-2.6°C 81% Calm Calm 2.3 mph3.7 kmh 29.92 in1013.2 mb - 0.00 in0.0 mm 0.00 in0.0 mm
09:55 AM 33.1°F0.6°C 27.9°F-2.3°C 81% 1.2 mph W1.9 kmh W 3.5 mph5.6 kmh 29.92 in1013.2 mb - 0.00 in0.0 mm 0.00 in0.0 mm
10:00 AM 33.4°F0.8°C 28.2°F-2.1°C 81% 1.2 mph W1.9 kmh W 2.3 mph3.7 kmh 29.92 in1013.2 mb - 0.01 in0.3 mm 0.01 in0.3 mm
10:05 AM 33.9°F1.1°C 28.7°F-1.8°C 81% 1.2 mph W1.9 kmh W 2.3 mph3.7 kmh 29.91 in1012.9 mb - 0.00 in0.0 mm 0.01 in0.3 mm
10:10 AM 34.3°F1.3°C 29.1°F-1.6°C 81% 2.3 mph W3.7 kmh W 3.5 mph5.6 kmh 29.91 in1012.9 mb - 0.00 in0.0 mm 0.01 in0.3 mm
10:15 AM 34.6°F1.4°C 29.4°F-1.4°C 81% Calm Calm 1.2 mph1.9 kmh 29.91 in1012.9 mb - 0.00 in0.0 mm 0.01 in0.3 mm
10:20 AM 34.8°F1.6°C 29.6°F-1.3°C 81% Calm Calm -- 29.91 in1012.9 mb - 0.00 in0.0 mm 0.01 in0.3 mm
10:25 AM 35.1°F1.7°C 29.9°F-1.2°C 81% 1.2 mph SSE1.9 kmh SSE 2.3 mph3.7 kmh 29.91 in1012.9 mb - 0.00 in0.0 mm 0.01 in0.3 mm
10:30 AM 35.6°F2.0°C 30.4°F-0.9°C 81% 2.3 mph SSE3.7 kmh SSE 3.5 mph5.6 kmh 29.91 in1012.9 mb - 0.00 in0.0 mm 0.01 in0.3 mm
10:35 AM 36.6°F2.6°C 31.3°F-0.4°C 81% 1.2 mph SSE1.9 kmh SSE 2.3 mph3.7 kmh 29.90 in1012.5 mb - 0.00 in0.0 mm 0.01 in0.3 mm
10:40 AM 37.6°F3.1°C 32.0°F0.0°C 80% 1.2 mph S1.9 kmh S 2.3 mph3.7 kmh 29.90 in1012.5 mb - 0.00 in0.0 mm 0.01 in0.3 mm
10:45 AM 38.4°F3.6°C 32.8°F0.4°C 80% 1.2 mph S1.9 kmh S 2.3 mph3.7 kmh 29.90 in1012.5 mb - 0.00 in0.0 mm 0.01 in0.3 mm
10:50 AM 39.1°F3.9°C 33.1°F0.6°C 79% 1.2 mph SE1.9 kmh SE 3.5 mph5.6 kmh 29.89 in1012.2 mb - 0.00 in0.0 mm 0.01 in0.3 mm
10:55 AM 39.8°F4.3°C 33.8°F1.0°C 79% 5.8 mph ESE9.3 kmh ESE 10.4 mph16.7 kmh 29.89 in1012.2 mb - 0.00 in0.0 mm 0.01 in0.3 mm
11:00 AM 40.4°F4.7°C 34.4°F1.3°C 79% 3.5 mph ESE5.6 kmh ESE 8.1 mph13.0 kmh 29.89 in1012.2 mb - 0.00 in0.0 mm 0.01 in0.3 mm
11:05 AM 41.3°F5.2°C 35.3°F1.8°C 79% 4.6 mph ESE7.4 kmh ESE 9.2 mph14.8 kmh 29.89 in1012.2 mb - 0.00 in0.0 mm 0.01 in0.3 mm
11:10 AM 41.9°F5.5°C 35.9°F2.2°C 79% 4.6 mph E7.4 kmh E 8.1 mph13.0 kmh 29.89 in1012.2 mb - 0.00 in0.0 mm 0.01 in0.3 mm
11:15 AM 42.4°F5.8°C 36.0°F2.2°C 78% 3.5 mph ESE5.6 kmh ESE 8.1 mph13.0 kmh 29.89 in1012.2 mb - 0.00 in0.0 mm 0.01 in0.3 mm
11:20 AM 42.7°F5.9°C 36.0°F2.2°C 77% 3.5 mph E5.6 kmh E 6.9 mph11.1 kmh 29.89 in1012.2 mb - 0.00 in0.0 mm 0.01 in0.3 mm
11:25 AM 43.0°F6.1°C 36.3°F2.4°C 77% 5.8 mph E9.3 kmh E 9.2 mph14.8 kmh 29.88 in1011.9 mb - 0.00 in0.0 mm 0.01 in0.3 mm
11:30 AM 43.2°F6.2°C 36.1°F2.3°C 76% 6.9 mph ESE11.1 kmh ESE 9.2 mph14.8 kmh 29.88 in1011.9 mb - 0.00 in0.0 mm 0.01 in0.3 mm
11:35 AM 43.4°F6.3°C 36.3°F2.4°C 76% 6.9 mph ESE11.1 kmh ESE 9.2 mph14.8 kmh 29.88 in1011.9 mb - 0.00 in0.0 mm 0.01 in0.3 mm
11:40 AM 43.7°F6.5°C 36.3°F2.4°C 75% 4.6 mph SE7.4 kmh SE 5.8 mph9.3 kmh 29.88 in1011.9 mb - 0.00 in0.0 mm 0.01 in0.3 mm
11:45 AM 44.0°F6.7°C 36.6°F2.6°C 75% 6.9 mph E11.1 kmh E 11.5 mph18.5 kmh 29.87 in1011.5 mb - 0.00 in0.0 mm 0.01 in0.3 mm
11:50 AM 44.3°F6.8°C 36.1°F2.3°C 73% 4.6 mph E7.4 kmh E 9.2 mph14.8 kmh 29.87 in1011.5 mb - 0.00 in0.0 mm 0.01 in0.3 mm
11:55 AM 44.6°F7.0°C 35.8°F2.1°C 71% 5.8 mph SE9.3 kmh SE 6.9 mph11.1 kmh 29.87 in1011.5 mb - 0.00 in0.0 mm 0.01 in0.3 mm
12:00 PM 45.0°F7.2°C 36.1°F2.3°C 71% 4.6 mph ESE7.4 kmh ESE 10.4 mph16.7 kmh 29.86 in1011.2 mb - 0.00 in0.0 mm 0.01 in0.3 mm
12:05 PM 45.3°F7.4°C 36.1°F2.3°C 70% 2.3 mph SE3.7 kmh SE 3.5 mph5.6 kmh 29.86 in1011.2 mb - 0.00 in0.0 mm 0.01 in0.3 mm
12:10 PM 45.6°F7.6°C 36.4°F2.4°C 70% 2.3 mph SE3.7 kmh SE 4.6 mph7.4 kmh 29.86 in1011.2 mb - 0.00 in0.0 mm 0.01 in0.3 mm
12:15 PM 45.8°F7.7°C 36.2°F2.3°C 69% 4.6 mph SE7.4 kmh SE 9.2 mph14.8 kmh 29.86 in1011.2 mb - 0.00 in0.0 mm 0.01 in0.3 mm
12:20 PM 45.9°F7.7°C 36.3°F2.4°C 69% 5.8 mph E9.3 kmh E 8.1 mph13.0 kmh 29.85 in1010.8 mb - 0.00 in0.0 mm 0.01 in0.3 mm
12:25 PM 45.6°F7.6°C 35.7°F2.1°C 68% 8.1 mph E13.0 kmh E 11.5 mph18.5 kmh 29.85 in1010.8 mb - 0.00 in0.0 mm 0.01 in0.3 mm
12:30 PM 45.4°F7.4°C 35.1°F1.7°C 67% 8.1 mph E13.0 kmh E 10.4 mph16.7 kmh 29.85 in1010.8 mb - 0.00 in0.0 mm 0.01 in0.3 mm
12:35 PM 45.4°F7.4°C 35.5°F1.9°C 68% 6.9 mph E11.1 kmh E 8.1 mph13.0 kmh 29.84 in1010.5 mb - 0.00 in0.0 mm 0.01 in0.3 mm
12:40 PM 45.5°F7.5°C 35.1°F1.7°C 67% 4.6 mph E7.4 kmh E 8.1 mph13.0 kmh 29.84 in1010.5 mb - 0.00 in0.0 mm 0.01 in0.3 mm
12:45 PM 45.8°F7.7°C 35.5°F1.9°C 67% 5.8 mph SE9.3 kmh SE 10.4 mph16.7 kmh 29.84 in1010.5 mb - 0.00 in0.0 mm 0.01 in0.3 mm
12:50 PM 46.1°F7.8°C 35.4°F1.9°C 66% 8.1 mph E13.0 kmh E 11.5 mph18.5 kmh 29.84 in1010.5 mb - 0.00 in0.0 mm 0.01 in0.3 mm
12:55 PM 46.2°F7.9°C 35.0°F1.7°C 65% 5.8 mph SE9.3 kmh SE 12.7 mph20.4 kmh 29.84 in1010.5 mb - 0.00 in0.0 mm 0.01 in0.3 mm
01:00 PM 46.2°F7.9°C 35.1°F1.7°C 65% 5.8 mph E9.3 kmh E 10.4 mph16.7 kmh 29.83 in1010.2 mb - 0.00 in0.0 mm 0.01 in0.3 mm
01:05 PM 46.1°F7.8°C 35.0°F1.7°C 65% 5.8 mph E9.3 kmh E 11.5 mph18.5 kmh 29.83 in1010.2 mb - 0.00 in0.0 mm 0.01 in0.3 mm
01:10 PM 46.0°F7.8°C 34.9°F1.6°C 65% 8.1 mph ESE13.0 kmh ESE 10.4 mph16.7 kmh 29.83 in1010.2 mb - 0.00 in0.0 mm 0.01 in0.3 mm
01:15 PM 46.0°F7.8°C 34.9°F1.6°C 65% 4.6 mph ESE7.4 kmh ESE 11.5 mph18.5 kmh 29.82 in1009.8 mb - 0.00 in0.0 mm 0.01 in0.3 mm
01:20 PM 46.1°F7.8°C 35.0°F1.7°C 65% 4.6 mph SE7.4 kmh SE 8.1 mph13.0 kmh 29.82 in1009.8 mb - 0.00 in0.0 mm 0.01 in0.3 mm
04:30 PM 42.8°F6.0°C 32.6°F0.3°C 67% 8.1 mph E13.0 kmh E 11.5 mph18.5 kmh 29.77 in1008.1 mb - 0.00 in0.0 mm 0.01 in0.3 mm
04:35 PM 42.9°F6.1°C 33.1°F0.6°C 68% 5.8 mph E9.3 kmh E 8.1 mph13.0 kmh 29.77 in1008.1 mb - 0.00 in0.0 mm 0.01 in0.3 mm
04:40 PM 42.8°F6.0°C 33.3°F0.7°C 69% 6.9 mph E11.1 kmh E 9.2 mph14.8 kmh 29.76 in1007.8 mb - 0.00 in0.0 mm 0.01 in0.3 mm
04:45 PM 42.6°F5.9°C 33.1°F0.6°C 69% 5.8 mph E9.3 kmh E 6.9 mph11.1 kmh 29.76 in1007.8 mb - 0.00 in0.0 mm 0.01 in0.3 mm
04:50 PM 42.3°F5.7°C 33.2°F0.7°C 70% 5.8 mph E9.3 kmh E 8.1 mph13.0 kmh 29.76 in1007.8 mb - 0.00 in0.0 mm 0.01 in0.3 mm
04:55 PM 42.0°F5.6°C 32.6°F0.3°C 69% 3.5 mph E5.6 kmh E 5.8 mph9.3 kmh 29.76 in1007.8 mb - 0.00 in0.0 mm 0.01 in0.3 mm
05:00 PM 41.8°F5.4°C 32.4°F0.2°C 69% 3.5 mph E5.6 kmh E 4.6 mph7.4 kmh 29.77 in1008.1 mb - 0.00 in0.0 mm 0.01 in0.3 mm
05:05 PM 41.5°F5.3°C 32.5°F0.3°C 70% 3.5 mph E5.6 kmh E 6.9 mph11.1 kmh 29.76 in1007.8 mb - 0.00 in0.0 mm 0.01 in0.3 mm
05:10 PM 41.3°F5.2°C 32.2°F0.1°C 70% 2.3 mph ENE3.7 kmh ENE 3.5 mph5.6 kmh 29.76 in1007.8 mb - 0.00 in0.0 mm 0.01 in0.3 mm
05:15 PM 41.0°F5.0°C 32.3°F0.2°C 71% 5.8 mph E9.3 kmh E 6.9 mph11.1 kmh 29.76 in1007.8 mb - 0.00 in0.0 mm 0.01 in0.3 mm
05:20 PM 40.9°F4.9°C 32.6°F0.3°C 72% 4.6 mph E7.4 kmh E 4.6 mph7.4 kmh 29.76 in1007.8 mb - 0.00 in0.0 mm 0.01 in0.3 mm
05:25 PM 40.9°F4.9°C 32.6°F0.3°C 72% 4.6 mph E7.4 kmh E 5.8 mph9.3 kmh 29.76 in1007.8 mb - 0.00 in0.0 mm 0.01 in0.3 mm
05:30 PM 40.7°F4.8°C 32.7°F0.4°C 73% 5.8 mph E9.3 kmh E 8.1 mph13.0 kmh 29.76 in1007.8 mb - 0.00 in0.0 mm 0.01 in0.3 mm
05:35 PM 40.5°F4.7°C 32.9°F0.5°C 74% 5.8 mph E9.3 kmh E 6.9 mph11.1 kmh 29.76 in1007.8 mb - 0.00 in0.0 mm 0.01 in0.3 mm
05:40 PM 40.4°F4.7°C 32.8°F0.4°C 74% 4.6 mph E7.4 kmh E 6.9 mph11.1 kmh 29.77 in1008.1 mb - 0.00 in0.0 mm 0.01 in0.3 mm
05:45 PM 40.3°F4.6°C 33.0°F0.6°C 75% 3.5 mph E5.6 kmh E 5.8 mph9.3 kmh 29.77 in1008.1 mb - 0.00 in0.0 mm 0.01 in0.3 mm
05:50 PM 40.1°F4.5°C 32.8°F0.4°C 75% 3.5 mph E5.6 kmh E 3.5 mph5.6 kmh 29.77 in1008.1 mb - 0.00 in0.0 mm 0.01 in0.3 mm
05:55 PM 39.9°F4.4°C 32.6°F0.3°C 75% 2.3 mph E3.7 kmh E 3.5 mph5.6 kmh 29.76 in1007.8 mb - 0.00 in0.0 mm 0.01 in0.3 mm
06:00 PM 39.6°F4.2°C 32.7°F0.4°C 76% 1.2 mph E1.9 kmh E 2.3 mph3.7 kmh 29.76 in1007.8 mb - 0.00 in0.0 mm 0.01 in0.3 mm
06:05 PM 39.3°F4.1°C 32.3°F0.2°C 76% 1.2 mph E1.9 kmh E 2.3 mph3.7 kmh 29.76 in1007.8 mb - 0.00 in0.0 mm 0.01 in0.3 mm
06:10 PM 38.9°F3.8°C 32.3°F0.2°C 77% 1.2 mph E1.9 kmh E 2.3 mph3.7 kmh 29.76 in1007.8 mb - 0.00 in0.0 mm 0.01 in0.3 mm
06:15 PM 38.5°F3.6°C 31.9°F-0.1°C 77% 2.3 mph E3.7 kmh E 3.5 mph5.6 kmh 29.76 in1007.8 mb - 0.00 in0.0 mm 0.01 in0.3 mm
06:20 PM 38.2°F3.4°C 31.6°F-0.2°C 77% 2.3 mph E3.7 kmh E 3.5 mph5.6 kmh 29.76 in1007.8 mb - 0.00 in0.0 mm 0.01 in0.3 mm
06:25 PM 37.9°F3.3°C 31.7°F-0.2°C 78% 1.2 mph ENE1.9 kmh ENE 3.5 mph5.6 kmh 29.76 in1007.8 mb - 0.00 in0.0 mm 0.01 in0.3 mm
06:30 PM 37.7°F3.2°C 31.5°F-0.3°C 78% 2.3 mph ENE3.7 kmh ENE 3.5 mph5.6 kmh 29.76 in1007.8 mb - 0.00 in0.0 mm 0.01 in0.3 mm
06:35 PM 37.4°F3.0°C 31.2°F-0.4°C 78% Calm Calm 2.3 mph3.7 kmh 29.75 in1007.5 mb - 0.00 in0.0 mm 0.01 in0.3 mm
06:40 PM 37.2°F2.9°C 31.2°F-0.4°C 79% 2.3 mph ENE3.7 kmh ENE 2.3 mph3.7 kmh 29.75 in1007.5 mb - 0.00 in0.0 mm 0.01 in0.3 mm
06:45 PM 37.0°F2.8°C 31.0°F-0.6°C 79% 1.2 mph ENE1.9 kmh ENE 2.3 mph3.7 kmh 29.75 in1007.5 mb - 0.00 in0.0 mm 0.01 in0.3 mm
06:50 PM 36.8°F2.7°C 30.9°F-0.6°C 79% 2.3 mph ENE3.7 kmh ENE 3.5 mph5.6 kmh 29.75 in1007.5 mb - 0.00 in0.0 mm 0.01 in0.3 mm
06:55 PM 36.8°F2.7°C 30.9°F-0.6°C 79% 2.3 mph ENE3.7 kmh ENE 3.5 mph5.6 kmh 29.75 in1007.5 mb - 0.00 in0.0 mm 0.01 in0.3 mm
07:00 PM 36.7°F2.6°C 30.8°F-0.7°C 79% 2.3 mph ENE3.7 kmh ENE 3.5 mph5.6 kmh 29.75 in1007.5 mb - 0.00 in0.0 mm 0.01 in0.3 mm
07:05 PM 36.6°F2.6°C 30.7°F-0.7°C 79% 2.3 mph ENE3.7 kmh ENE 3.5 mph5.6 kmh 29.75 in1007.5 mb - 0.00 in0.0 mm 0.01 in0.3 mm
07:10 PM 36.6°F2.6°C 30.7°F-0.7°C 79% 2.3 mph ENE3.7 kmh ENE 2.3 mph3.7 kmh 29.74 in1007.1 mb - 0.00 in0.0 mm 0.01 in0.3 mm
07:15 PM 36.6°F2.6°C 30.7°F-0.7°C 79% 1.2 mph ENE1.9 kmh ENE 2.3 mph3.7 kmh 29.74 in1007.1 mb - 0.00 in0.0 mm 0.01 in0.3 mm
07:20 PM 36.5°F2.5°C 30.6°F-0.8°C 79% 1.2 mph ENE1.9 kmh ENE 2.3 mph3.7 kmh 29.74 in1007.1 mb - 0.00 in0.0 mm 0.01 in0.3 mm
07:25 PM 36.3°F2.4°C 30.4°F-0.9°C 79% 1.2 mph ENE1.9 kmh ENE 2.3 mph3.7 kmh 29.74 in1007.1 mb - 0.00 in0.0 mm 0.01 in0.3 mm
07:30 PM 36.0°F2.2°C 30.1°F-1.1°C 79% 2.3 mph ENE3.7 kmh ENE 3.5 mph5.6 kmh 29.73 in1006.8 mb - 0.00 in0.0 mm 0.01 in0.3 mm
07:35 PM 35.9°F2.2°C 30.0°F-1.1°C 79% 2.3 mph NE3.7 kmh NE 3.5 mph5.6 kmh 29.73 in1006.8 mb - 0.00 in0.0 mm 0.01 in0.3 mm
07:40 PM 35.7°F2.1°C 30.1°F-1.1°C 80% 3.5 mph ENE5.6 kmh ENE 4.6 mph7.4 kmh 29.74 in1007.1 mb - 0.00 in0.0 mm 0.01 in0.3 mm
07:45 PM 35.7°F2.1°C 30.1°F-1.1°C 80% 2.3 mph E3.7 kmh E 3.5 mph5.6 kmh 29.73 in1006.8 mb - 0.00 in0.0 mm 0.01 in0.3 mm
07:50 PM 35.7°F2.1°C 30.1°F-1.1°C 80% 2.3 mph E3.7 kmh E 3.5 mph5.6 kmh 29.73 in1006.8 mb - 0.00 in0.0 mm 0.01 in0.3 mm
07:55 PM 35.7°F2.1°C 30.1°F-1.1°C 80% 2.3 mph E3.7 kmh E 3.5 mph5.6 kmh 29.73 in1006.8 mb - 0.00 in0.0 mm 0.01 in0.3 mm
08:00 PM 35.5°F1.9°C 29.9°F-1.2°C 80% Calm Calm 2.3 mph3.7 kmh 29.73 in1006.8 mb - 0.00 in0.0 mm 0.01 in0.3 mm
08:05 PM 34.8°F1.6°C 29.3°F-1.5°C 80% 1.2 mph W1.9 kmh W 3.5 mph5.6 kmh 29.72 in1006.4 mb - 0.00 in0.0 mm 0.01 in0.3 mm
08:10 PM 34.5°F1.4°C 29.0°F-1.7°C 80% 2.3 mph W3.7 kmh W 3.5 mph5.6 kmh 29.72 in1006.4 mb - 0.00 in0.0 mm 0.01 in0.3 mm
08:15 PM 34.3°F1.3°C 28.8°F-1.8°C 80% 2.3 mph W3.7 kmh W 2.3 mph3.7 kmh 29.72 in1006.4 mb - 0.00 in0.0 mm 0.01 in0.3 mm
08:20 PM 34.1°F1.2°C 28.6°F-1.9°C 80% Calm Calm -- 29.72 in1006.4 mb - 0.00 in0.0 mm 0.01 in0.3 mm
08:25 PM 33.8°F1.0°C 28.3°F-2.1°C 80% Calm Calm 1.2 mph1.9 kmh 29.72 in1006.4 mb - 0.00 in0.0 mm 0.01 in0.3 mm
08:30 PM 33.4°F0.8°C 27.9°F-2.3°C 80% Calm Calm 2.3 mph3.7 kmh 29.71 in1006.1 mb - 0.00 in0.0 mm 0.01 in0.3 mm
08:35 PM 33.1°F0.6°C 27.6°F-2.4°C 80% Calm Calm 1.2 mph1.9 kmh 29.71 in1006.1 mb - 0.00 in0.0 mm 0.01 in0.3 mm
08:40 PM 32.9°F0.5°C 27.4°F-2.6°C 80% Calm Calm -- 29.71 in1006.1 mb - 0.00 in0.0 mm 0.01 in0.3 mm
08:45 PM 32.7°F0.4°C 27.2°F-2.7°C 80% 2.3 mph W3.7 kmh W 3.5 mph5.6 kmh 29.71 in1006.1 mb - 0.00 in0.0 mm 0.01 in0.3 mm
08:50 PM 32.5°F0.3°C 27.0°F-2.8°C 80% Calm Calm -- 29.70 in1005.8 mb - 0.00 in0.0 mm 0.01 in0.3 mm
08:55 PM 32.3°F0.2°C 26.8°F-2.9°C 80% Calm Calm 1.2 mph1.9 kmh 29.70 in1005.8 mb - 0.00 in0.0 mm 0.01 in0.3 mm
09:00 PM 32.1°F0.1°C 26.6°F-3.0°C 80% Calm Calm 1.2 mph1.9 kmh 29.70 in1005.8 mb - 0.00 in0.0 mm 0.01 in0.3 mm
09:05 PM 32.1°F0.1°C 26.6°F-3.0°C 80% 1.2 mph W1.9 kmh W 2.3 mph3.7 kmh 29.70 in1005.8 mb - 0.00 in0.0 mm 0.01 in0.3 mm
09:10 PM 32.0°F0.0°C 26.5°F-3.1°C 80% Calm Calm -- 29.70 in1005.8 mb - 0.00 in0.0 mm 0.01 in0.3 mm
09:15 PM 31.7°F-0.2°C 26.2°F-3.2°C 80% Calm Calm -- 29.70 in1005.8 mb - 0.00 in0.0 mm 0.01 in0.3 mm
09:20 PM 31.5°F-0.3°C 26.0°F-3.3°C 80% Calm Calm -- 29.70 in1005.8 mb - 0.00 in0.0 mm 0.01 in0.3 mm
09:25 PM 31.1°F-0.5°C 25.7°F-3.5°C 80% 1.2 mph W1.9 kmh W 3.5 mph5.6 kmh 29.69 in1005.4 mb - 0.00 in0.0 mm 0.01 in0.3 mm
09:30 PM 30.9°F-0.6°C 25.5°F-3.6°C 80% Calm Calm -- 29.69 in1005.4 mb - 0.00 in0.0 mm 0.01 in0.3 mm
09:35 PM 30.8°F-0.7°C 25.3°F-3.7°C 80% 1.2 mph W1.9 kmh W 2.3 mph3.7 kmh 29.69 in1005.4 mb - 0.00 in0.0 mm 0.01 in0.3 mm
09:40 PM 30.5°F-0.8°C 25.1°F-3.8°C 80% 1.2 mph W1.9 kmh W 2.3 mph3.7 kmh 29.69 in1005.4 mb - 0.00 in0.0 mm 0.01 in0.3 mm
09:45 PM 30.3°F-0.9°C 24.9°F-3.9°C 80% Calm Calm -- 29.69 in1005.4 mb - 0.00 in0.0 mm 0.01 in0.3 mm
09:50 PM 30.3°F-0.9°C 24.6°F-4.1°C 79% Calm Calm -- 29.69 in1005.4 mb - 0.00 in0.0 mm 0.01 in0.3 mm
09:55 PM 30.4°F-0.9°C 24.7°F-4.1°C 79% 1.2 mph W1.9 kmh W 1.2 mph1.9 kmh 29.69 in1005.4 mb - 0.00 in0.0 mm 0.01 in0.3 mm
10:00 PM 30.2°F-1.0°C 24.5°F-4.2°C 79% Calm Calm -- 29.69 in1005.4 mb - 0.00 in0.0 mm 0.01 in0.3 mm
10:05 PM 29.9°F-1.2°C 24.2°F-4.3°C 79% Calm Calm -- 29.69 in1005.4 mb - 0.00 in0.0 mm 0.01 in0.3 mm
10:10 PM 29.7°F-1.3°C 24.0°F-4.4°C 79% Calm Calm -- 29.69 in1005.4 mb - 0.00 in0.0 mm 0.01 in0.3 mm
10:15 PM 29.6°F-1.3°C 23.9°F-4.5°C 79% Calm Calm -- 29.68 in1005.1 mb - 0.00 in0.0 mm 0.01 in0.3 mm
10:20 PM 29.6°F-1.3°C 23.9°F-4.5°C 79% Calm Calm -- 29.68 in1005.1 mb - 0.00 in0.0 mm 0.01 in0.3 mm
10:25 PM 29.7°F-1.3°C 24.0°F-4.4°C 79% Calm Calm -- 29.68 in1005.1 mb - 0.00 in0.0 mm 0.01 in0.3 mm
10:30 PM 29.7°F-1.3°C 24.0°F-4.4°C 79% Calm Calm -- 29.68 in1005.1 mb - 0.00 in0.0 mm 0.01 in0.3 mm
10:35 PM 29.6°F-1.3°C 23.9°F-4.5°C 79% Calm Calm -- 29.67 in1004.7 mb - 0.00 in0.0 mm 0.01 in0.3 mm
10:40 PM 29.6°F-1.3°C 23.9°F-4.5°C 79% Calm Calm -- 29.67 in1004.7 mb - 0.00 in0.0 mm 0.01 in0.3 mm
10:45 PM 29.6°F-1.3°C 23.9°F-4.5°C 79% 1.2 mph W1.9 kmh W 3.5 mph5.6 kmh 29.67 in1004.7 mb - 0.00 in0.0 mm 0.01 in0.3 mm
10:50 PM 29.7°F-1.3°C 24.0°F-4.4°C 79% 1.2 mph W1.9 kmh W 3.5 mph5.6 kmh 29.67 in1004.7 mb - 0.00 in0.0 mm 0.01 in0.3 mm
10:55 PM 29.7°F-1.3°C 24.0°F-4.4°C 79% Calm Calm 1.2 mph1.9 kmh 29.67 in1004.7 mb - 0.00 in0.0 mm 0.01 in0.3 mm
11:00 PM 29.9°F-1.2°C 24.2°F-4.3°C 79% Calm Calm 1.2 mph1.9 kmh 29.67 in1004.7 mb - 0.00 in0.0 mm 0.01 in0.3 mm
11:05 PM 29.9°F-1.2°C 24.2°F-4.3°C 79% 1.2 mph SSE1.9 kmh SSE 2.3 mph3.7 kmh 29.66 in1004.4 mb - 0.00 in0.0 mm 0.01 in0.3 mm
11:10 PM 30.0°F-1.1°C 24.3°F-4.3°C 79% Calm Calm 1.2 mph1.9 kmh 29.66 in1004.4 mb - 0.00 in0.0 mm 0.01 in0.3 mm
11:15 PM 30.1°F-1.1°C 24.4°F-4.2°C 79% 2.3 mph SSE3.7 kmh SSE 3.5 mph5.6 kmh 29.66 in1004.4 mb - 0.00 in0.0 mm 0.01 in0.3 mm
11:20 PM 30.3°F-0.9°C 24.6°F-4.1°C 79% 2.3 mph E3.7 kmh E 3.5 mph5.6 kmh 29.66 in1004.4 mb - 0.00 in0.0 mm 0.01 in0.3 mm
11:25 PM 30.4°F-0.9°C 24.7°F-4.1°C 79% 3.5 mph E5.6 kmh E 3.5 mph5.6 kmh 29.66 in1004.4 mb - 0.00 in0.0 mm 0.01 in0.3 mm
11:30 PM 30.6°F-0.8°C 24.9°F-3.9°C 79% Calm Calm -- 29.65 in1004.1 mb - 0.00 in0.0 mm 0.01 in0.3 mm
11:35 PM 30.9°F-0.6°C 25.2°F-3.8°C 79% 2.3 mph ESE3.7 kmh ESE 3.5 mph5.6 kmh 29.65 in1004.1 mb - 0.00 in0.0 mm 0.01 in0.3 mm
11:40 PM 31.3°F-0.4°C 25.5°F-3.6°C 79% 1.2 mph SE1.9 kmh SE 2.3 mph3.7 kmh 29.65 in1004.1 mb - 0.00 in0.0 mm 0.01 in0.3 mm
11:45 PM 31.5°F-0.3°C 25.7°F-3.5°C 79% 2.3 mph SE3.7 kmh SE 3.5 mph5.6 kmh 29.65 in1004.1 mb - 0.00 in0.0 mm 0.01 in0.3 mm
11:50 PM 32.0°F0.0°C 26.2°F-3.2°C 79% 2.3 mph E3.7 kmh E 3.5 mph5.6 kmh 29.66 in1004.4 mb - 0.00 in0.0 mm 0.01 in0.3 mm
11:55 PM 32.3°F0.2°C 26.5°F-3.1°C 79% 1.2 mph E1.9 kmh E 2.3 mph3.7 kmh 29.65 in1004.1 mb - 0.00 in0.0 mm 0.01 in0.3 mm